Time;durP1;ratioP1;P1;durP2;ratioP2;P2;SDS_P1;SDS_P2;PMS_P1;PMS_P2;Temp;Humidity;BMP_temperature;BMP_pressure;BME280_temperature;BME280_humidity;BME280_pressure;Samples;Min_cycle;Max_cycle;Signal;HPM_P1;HPM_P2
2021/05/26 00:02:01;;;;;;;0.50;0.40;;;17.70;58.20;;;;;;4369673;32;20082;-36
2021/05/26 00:04:27;;;;;;;1.98;0.85;;;17.70;58.20;;;;;;4369834;32;20081;-37
2021/05/26 00:06:53;;;;;;;1.27;0.50;;;17.70;58.20;;;;;;4370110;32;20578;-36
2021/05/26 00:09:20;;;;;;;0.93;0.70;;;17.70;58.30;;;;;;4369848;32;20565;-36
2021/05/26 00:11:46;;;;;;;1.73;0.90;;;17.70;58.40;;;;;;4371359;32;20076;-36
2021/05/26 00:14:13;;;;;;;1.00;0.60;;;17.60;58.40;;;;;;4360078;32;20096;-36
2021/05/26 00:16:39;;;;;;;0.57;0.52;;;17.60;58.40;;;;;;4372322;32;20175;-36
2021/05/26 00:19:07;;;;;;;1.50;0.50;;;17.60;58.40;;;;;;4372830;32;20065;-36
2021/05/26 00:21:34;;;;;;;1.50;1.15;;;17.60;58.50;;;;;;4350713;32;20050;-36
2021/05/26 00:24:01;;;;;;;1.25;1.05;;;17.60;58.60;;;;;;4357778;32;20070;-36
2021/05/26 00:26:27;;;;;;;3.53;1.12;;;17.50;58.60;;;;;;4357526;32;20078;-35
2021/05/26 00:28:55;;;;;;;0.50;0.50;;;17.60;58.70;;;;;;4358046;32;20553;-36
2021/05/26 00:31:24;;;;;;;1.10;0.50;;;17.50;58.70;;;;;;4357541;32;20078;-35
2021/05/26 00:33:50;;;;;;;0.65;0.40;;;17.50;58.70;;;;;;4373540;32;20101;-36
2021/05/26 00:36:17;;;;;;;0.90;0.70;;;17.50;58.70;;;;;;4389927;32;20509;-36
2021/05/26 00:38:43;;;;;;;3.83;1.00;;;17.50;58.70;;;;;;4350626;32;20065;-36
2021/05/26 00:41:10;;;;;;;2.15;1.02;;;17.50;58.80;;;;;;4389936;32;20103;-36
2021/05/26 00:43:36;;;;;;;0.43;0.43;;;17.40;58.80;;;;;;4390130;32;20085;-37
2021/05/26 00:46:03;;;;;;;0.43;0.40;;;17.50;59.00;;;;;;4389620;32;20092;-37
2021/05/26 00:48:29;;;;;;;1.70;1.17;;;17.40;59.10;;;;;;4389652;32;20065;-39
2021/05/26 00:50:56;;;;;;;2.15;0.88;;;17.40;59.00;;;;;;4389729;32;20061;-36
2021/05/26 00:53:24;;;;;;;0.57;0.57;;;17.40;59.10;;;;;;4389782;32;20145;-36
2021/05/26 00:55:50;;;;;;;4.57;1.05;;;17.40;59.10;;;;;;4389462;32;20085;-36
2021/05/26 00:58:17;;;;;;;3.22;1.20;;;17.40;58.90;;;;;;4389453;32;20173;-37
2021/05/26 01:00:43;;;;;;;0.55;0.30;;;17.40;58.90;;;;;;4363251;32;20493;-36
2021/05/26 01:03:10;;;;;;;0.75;0.73;;;17.40;58.80;;;;;;4389389;32;20186;-35
2021/05/26 01:05:37;;;;;;;0.70;0.50;;;17.40;58.80;;;;;;4389329;32;20595;-35
2021/05/26 01:08:04;;;;;;;1.87;0.70;;;17.50;58.80;;;;;;4389575;32;20061;-35
2021/05/26 01:10:33;;;;;;;1.58;0.50;;;17.50;58.70;;;;;;4389513;32;20076;-39
2021/05/26 01:12:59;;;;;;;1.17;0.80;;;17.50;58.60;;;;;;4389585;32;20109;-36
2021/05/26 01:15:26;;;;;;;0.75;0.70;;;17.50;58.50;;;;;;4389278;32;20069;-36
2021/05/26 01:17:53;;;;;;;2.37;0.85;;;17.60;58.40;;;;;;4389537;32;20138;-36
2021/05/26 01:20:28;;;;;;;4.97;0.90;;;17.60;58.30;;;;;;4377447;32;20544;-35
2021/05/26 01:22:56;;;;;;;1.05;0.73;;;17.60;58.20;;;;;;4403721;32;20501;-35
2021/05/26 01:25:23;;;;;;;6.82;1.00;;;17.70;58.10;;;;;;4404727;32;20073;-34
2021/05/26 01:27:49;;;;;;;1.52;0.43;;;17.70;58.00;;;;;;4404204;32;20165;-36
2021/05/26 01:30:17;;;;;;;6.37;0.35;;;17.80;57.80;;;;;;4404346;32;20173;-37
2021/05/26 01:32:48;;;;;;;0.95;0.70;;;17.80;57.70;;;;;;4404235;32;20081;-34
2021/05/26 01:35:15;;;;;;;3.60;1.05;;;17.80;57.60;;;;;;4404543;32;20143;-36
2021/05/26 01:37:44;;;;;;;1.83;1.00;;;17.90;57.50;;;;;;4403555;32;20077;-36
2021/05/26 01:40:13;;;;;;;4.10;1.05;;;18.00;57.20;;;;;;4390470;32;20072;-37
2021/05/26 01:42:40;;;;;;;1.48;1.00;;;18.20;56.90;;;;;;4404365;32;20070;-35
2021/05/26 01:45:10;;;;;;;3.58;1.00;;;18.40;56.20;;;;;;4404164;32;20049;-36
2021/05/26 01:47:36;;;;;;;1.35;0.80;;;18.70;55.40;;;;;;4404103;32;20219;-35
2021/05/26 01:50:05;;;;;;;1.05;0.60;;;18.90;54.80;;;;;;4404576;32;20177;-37
2021/05/26 01:52:31;;;;;;;1.75;0.90;;;19.10;54.10;;;;;;4408145;32;20128;-38
2021/05/26 01:54:57;;;;;;;0.55;0.40;;;19.30;53.40;;;;;;4408662;32;20081;-37
2021/05/26 01:57:24;;;;;;;3.75;0.70;;;19.60;52.90;;;;;;4393997;32;20092;-39
2021/05/26 01:59:50;;;;;;;0.85;0.85;;;19.80;52.20;;;;;;4403287;32;20088;-37
2021/05/26 02:02:17;;;;;;;0.47;0.32;;;20.00;51.60;;;;;;4403834;32;20630;-37
2021/05/26 02:04:44;;;;;;;2.00;0.62;;;20.20;51.00;;;;;;4403412;32;20088;-38
2021/05/26 02:07:12;;;;;;;0.85;0.57;;;20.40;51.20;;;;;;4389834;32;20069;-37
2021/05/26 02:09:39;;;;;;;13.35;2.00;;;20.60;50.00;;;;;;4403726;32;20458;-37
2021/05/26 02:14:51;;;;;;;0.30;0.30;;;21.10;48.90;;;;;;4403669;32;20145;-37
2021/05/26 02:17:18;;;;;;;0.60;0.47;;;21.30;48.40;;;;;;4403896;32;20485;-39
2021/05/26 02:19:45;;;;;;;0.52;0.20;;;21.50;47.70;;;;;;4403427;32;20053;-37
2021/05/26 02:22:11;;;;;;;1.52;0.50;;;21.60;47.20;;;;;;4389615;32;20056;-38
2021/05/26 02:24:38;;;;;;;0.28;0.25;;;21.70;47.00;;;;;;4388400;32;20160;-38
2021/05/26 02:27:05;;;;;;;0.22;0.22;;;21.90;46.60;;;;;;4387078;32;20510;-37
2021/05/26 02:29:31;;;;;;;0.50;0.37;;;22.00;46.50;;;;;;4389091;32;20066;-36
2021/05/26 02:31:58;;;;;;;0.28;0.28;;;22.10;46.10;;;;;;4386894;32;20586;-37
2021/05/26 02:34:24;;;;;;;0.65;0.35;;;22.30;45.70;;;;;;4388180;32;20070;-37
2021/05/26 02:36:51;;;;;;;4.47;0.60;;;22.40;45.40;;;;;;4387542;32;20246;-36
2021/05/26 02:39:17;;;;;;;0.60;0.30;;;22.50;45.00;;;;;;4388240;32;20077;-38
2021/05/26 02:41:44;;;;;;;0.28;0.20;;;22.70;44.70;;;;;;4388321;32;20062;-38
2021/05/26 02:44:11;;;;;;;2.12;0.62;;;22.80;44.50;;;;;;4388096;32;20049;-38
2021/05/26 02:46:37;;;;;;;4.40;0.65;;;23.00;44.00;;;;;;4388448;32;20061;-39
2021/05/26 02:49:05;;;;;;;2.03;0.80;;;23.10;43.90;;;;;;4388001;32;20642;-38
2021/05/26 02:51:35;;;;;;;1.15;0.65;;;23.20;43.50;;;;;;4388347;32;20454;-38
2021/05/26 02:54:01;;;;;;;3.17;0.77;;;23.40;43.00;;;;;;4387847;32;20525;-39
2021/05/26 02:56:28;;;;;;;2.15;0.50;;;23.60;42.70;;;;;;4387830;32;20567;-37
2021/05/26 02:58:55;;;;;;;2.00;0.62;;;23.80;42.30;;;;;;4387957;32;20066;-38
2021/05/26 03:01:21;;;;;;;3.17;0.85;;;24.00;41.80;;;;;;4386422;32;20100;-38
2021/05/26 03:03:48;;;;;;;3.35;1.00;;;24.20;41.80;;;;;;4386637;32;20092;-38
2021/05/26 03:06:15;;;;;;;3.35;0.60;;;24.40;41.20;;;;;;4399935;32;20081;-38
2021/05/26 03:08:42;;;;;;;1.10;0.47;;;24.60;41.20;;;;;;4400487;32;20069;-38
2021/05/26 03:11:08;;;;;;;2.62;0.60;;;24.80;40.30;;;;;;4400613;32;20078;-40
2021/05/26 03:13:35;;;;;;;4.97;0.40;;;25.00;39.50;;;;;;4400747;32;20151;-38
2021/05/26 03:16:02;;;;;;;2.58;0.60;;;25.20;39.50;;;;;;4387922;32;20149;-38
2021/05/26 03:18:29;;;;;;;1.25;0.77;;;25.20;39.10;;;;;;4400429;32;20165;-38
2021/05/26 03:20:56;;;;;;;0.85;0.55;;;25.30;38.90;;;;;;4381939;32;20058;-39
2021/05/26 03:23:22;;;;;;;2.35;1.05;;;25.30;38.60;;;;;;4385719;32;20160;-38
2021/05/26 03:25:49;;;;;;;1.00;0.40;;;25.40;38.20;;;;;;4385278;32;20076;-38
2021/05/26 03:28:16;;;;;;;3.33;0.75;;;25.50;38.20;;;;;;4372897;32;20078;-39
2021/05/26 03:30:43;;;;;;;4.65;0.90;;;25.50;37.60;;;;;;4385423;32;20058;-39
2021/05/26 03:33:11;;;;;;;1.17;0.60;;;25.60;37.20;;;;;;4385386;32;20149;-37
2021/05/26 03:35:39;;;;;;;1.73;0.60;;;25.70;37.10;;;;;;4373334;32;20058;-38
2021/05/26 03:38:06;;;;;;;2.80;0.62;;;25.70;37.00;;;;;;4386811;32;20074;-39
2021/05/26 03:40:34;;;;;;;6.90;0.80;;;25.80;36.70;;;;;;4387561;32;20125;-38
2021/05/26 03:43:01;;;;;;;5.40;0.62;;;25.90;36.70;;;;;;4374107;32;20153;-39
2021/05/26 03:45:28;;;;;;;8.05;1.52;;;26.00;36.30;;;;;;4387538;32;20094;-38
2021/05/26 03:47:56;;;;;;;3.87;0.50;;;26.20;36.30;;;;;;4390229;32;20584;-39
2021/05/26 03:50:23;;;;;;;3.37;0.90;;;26.30;35.50;;;;;;4377064;32;20136;-40
2021/05/26 03:52:50;;;;;;;1.37;0.50;;;26.40;35.30;;;;;;4390861;32;20136;-39
2021/05/26 03:55:18;;;;;;;0.50;0.30;;;26.50;34.70;;;;;;4376806;32;20061;-39
2021/05/26 03:57:45;;;;;;;3.00;0.90;;;26.70;34.90;;;;;;4390341;32;20133;-39
2021/05/26 04:00:14;;;;;;;1.25;0.40;;;26.80;34.90;;;;;;4390696;32;20062;-38
2021/05/26 04:02:41;;;;;;;2.22;0.40;;;26.90;34.60;;;;;;4390443;32;20064;-40
2021/05/26 04:05:08;;;;;;;4.87;0.60;;;27.10;34.60;;;;;;4376926;32;20073;-39
2021/05/26 04:07:34;;;;;;;5.78;0.60;;;27.20;34.50;;;;;;4389935;32;20082;-38
2021/05/26 04:10:01;;;;;;;1.95;0.20;;;27.30;34.10;;;;;;4376689;32;20105;-38
2021/05/26 04:12:28;;;;;;;1.08;0.40;;;27.40;33.90;;;;;;4376352;32;20060;-39
2021/05/26 04:14:55;;;;;;;5.50;0.70;;;27.50;33.80;;;;;;4390435;32;20160;-39
2021/05/26 04:17:22;;;;;;;0.95;0.57;;;27.50;33.70;;;;;;4390359;32;20070;-40
2021/05/26 04:19:49;;;;;;;3.67;0.40;;;27.60;34.00;;;;;;4390467;32;20085;-39
2021/05/26 04:22:17;;;;;;;1.67;0.52;;;27.70;33.90;;;;;;4404414;32;20065;-39
2021/05/26 04:24:47;;;;;;;0.93;0.45;;;27.70;33.70;;;;;;4404947;32;20546;-39
2021/05/26 04:27:13;;;;;;;1.95;0.30;;;27.80;33.70;;;;;;4405591;32;20169;-40
2021/05/26 04:29:40;;;;;;;4.05;0.77;;;27.90;33.90;;;;;;4405113;32;20469;-38
2021/05/26 04:32:06;;;;;;;2.97;0.60;;;27.90;33.30;;;;;;4405127;32;20253;-40
2021/05/26 04:34:33;;;;;;;0.35;0.30;;;28.00;33.30;;;;;;4405255;32;20086;-39
2021/05/26 04:36:59;;;;;;;0.30;0.20;;;28.10;32.80;;;;;;4404949;32;20100;-39
2021/05/26 04:39:26;;;;;;;1.05;0.20;;;28.10;32.40;;;;;;4404823;32;20058;-39
2021/05/26 04:41:52;;;;;;;1.20;0.43;;;28.10;32.50;;;;;;4405169;32;20057;-39
2021/05/26 04:44:19;;;;;;;0.37;0.20;;;28.10;32.50;;;;;;4404608;32;20100;-38
2021/05/26 04:46:45;;;;;;;3.08;0.57;;;28.00;32.50;;;;;;4391221;32;20513;-39
2021/05/26 04:49:12;;;;;;;0.32;0.20;;;28.10;32.80;;;;;;4405685;32;20062;-38
2021/05/26 04:51:39;;;;;;;0.65;0.50;;;28.10;32.70;;;;;;4371946;32;20192;-38
2021/05/26 04:54:06;;;;;;;1.67;0.70;;;28.10;32.50;;;;;;4372134;32;20073;-39
2021/05/26 04:56:32;;;;;;;3.78;0.70;;;28.10;32.10;;;;;;4372099;32;20232;-39
2021/05/26 04:58:59;;;;;;;1.02;0.30;;;28.20;32.70;;;;;;4371859;32;20088;-39
2021/05/26 05:01:25;;;;;;;3.00;0.80;;;28.20;32.70;;;;;;4371478;32;20082;-39
2021/05/26 05:03:52;;;;;;;0.73;0.40;;;28.30;32.70;;;;;;4371529;32;20636;-40
2021/05/26 05:06:20;;;;;;;1.25;0.68;;;28.30;32.40;;;;;;4371903;32;20089;-38
2021/05/26 05:08:48;;;;;;;0.60;0.40;;;28.30;32.70;;;;;;4371887;32;20147;-38
2021/05/26 05:11:14;;;;;;;0.98;0.50;;;28.30;32.10;;;;;;4372356;32;20066;-38
2021/05/26 05:13:41;;;;;;;1.33;0.68;;;28.20;32.10;;;;;;4359780;32;20083;-38
2021/05/26 05:16:07;;;;;;;0.55;0.37;;;28.30;31.80;;;;;;4371989;32;20054;-38
2021/05/26 05:18:34;;;;;;;4.43;0.40;;;28.20;31.70;;;;;;4372027;32;20061;-39
2021/05/26 05:21:00;;;;;;;0.20;0.20;;;28.20;32.20;;;;;;4371720;32;20151;-37
2021/05/26 05:23:26;;;;;;;3.00;0.50;;;28.30;32.40;;;;;;4383914;32;20105;-38
2021/05/26 05:25:53;;;;;;;5.10;0.65;;;28.50;32.90;;;;;;4386728;32;20081;-39
2021/05/26 05:28:19;;;;;;;0.80;0.20;;;28.60;32.40;;;;;;4374210;32;20215;-37
2021/05/26 05:30:46;;;;;;;0.45;0.32;;;28.70;31.00;;;;;;4386864;32;20152;-39
2021/05/26 05:33:12;;;;;;;2.00;0.30;;;28.70;30.40;;;;;;4386810;32;20063;-39
2021/05/26 05:35:39;;;;;;;1.27;0.35;;;28.80;30.00;;;;;;4387079;32;20143;-38
2021/05/26 05:38:05;;;;;;;1.52;0.40;;;28.80;30.00;;;;;;4376611;32;20077;-38
2021/05/26 05:40:32;;;;;;;0.60;0.30;;;28.90;29.60;;;;;;4403780;32;20531;-38
2021/05/26 05:42:58;;;;;;;0.65;0.40;;;28.80;29.30;;;;;;4404333;32;20081;-39
2021/05/26 05:45:25;;;;;;;0.35;0.20;;;29.00;29.80;;;;;;4404299;32;20073;-38
2021/05/26 05:47:51;;;;;;;0.43;0.32;;;29.00;29.90;;;;;;4403675;32;20584;-37
2021/05/26 05:50:18;;;;;;;1.62;0.30;;;29.10;29.00;;;;;;4404074;32;20517;-38
2021/05/26 05:52:49;;;;;;;2.67;0.30;;;29.20;29.30;;;;;;4403862;32;20121;-38
2021/05/26 05:55:16;;;;;;;4.68;0.20;;;29.20;29.20;;;;;;4386514;32;20088;-38
2021/05/26 05:57:42;;;;;;;2.22;0.43;;;29.30;28.10;;;;;;4386162;32;20083;-38
2021/05/26 06:00:10;;;;;;;1.67;0.68;;;29.40;27.80;;;;;;4373920;32;20437;-39
2021/05/26 06:02:37;;;;;;;0.28;0.28;;;29.40;28.20;;;;;;4386078;32;20637;-37
2021/05/26 06:05:04;;;;;;;1.85;0.45;;;29.60;28.10;;;;;;4385875;32;20124;-38
2021/05/26 06:07:30;;;;;;;0.40;0.40;;;29.50;27.40;;;;;;4386047;32;20081;-39
2021/05/26 06:09:57;;;;;;;3.20;0.37;;;29.40;27.50;;;;;;4385775;32;20414;-37
2021/05/26 06:12:24;;;;;;;0.85;0.40;;;29.30;27.10;;;;;;4386195;32;20177;-37
2021/05/26 06:14:50;;;;;;;2.87;0.50;;;29.30;27.20;;;;;;4385786;32;20085;-38
2021/05/26 06:17:17;;;;;;;3.62;0.50;;;29.20;27.80;;;;;;4386372;32;20077;-38
2021/05/26 06:19:43;;;;;;;0.68;0.25;;;29.20;27.70;;;;;;4355640;32;20077;-39
2021/05/26 06:22:10;;;;;;;2.62;0.40;;;29.10;26.90;;;;;;4355899;32;20512;-38
2021/05/26 06:24:36;;;;;;;0.95;0.50;;;29.20;27.40;;;;;;4343694;32;20541;-37
2021/05/26 06:27:03;;;;;;;2.80;0.30;;;29.10;27.70;;;;;;4368148;32;20130;-38
2021/05/26 06:29:29;;;;;;;0.55;0.40;;;29.20;27.60;;;;;;4358193;32;20073;-39
2021/05/26 06:31:56;;;;;;;0.30;0.30;;;29.30;27.20;;;;;;4370430;32;20601;-38
2021/05/26 06:34:23;;;;;;;0.73;0.25;;;29.40;26.60;;;;;;4370780;32;20090;-38
2021/05/26 06:36:49;;;;;;;0.55;0.25;;;29.40;26.10;;;;;;4370655;32;20481;-39
2021/05/26 06:39:16;;;;;;;0.70;0.35;;;29.50;26.10;;;;;;4370687;32;20109;-38
2021/05/26 06:41:42;;;;;;;1.75;0.40;;;29.70;26.30;;;;;;4370421;32;20173;-38
2021/05/26 06:44:09;;;;;;;1.25;0.57;;;29.80;26.10;;;;;;4370258;32;20061;-38
2021/05/26 06:46:35;;;;;;;1.83;0.35;;;30.00;25.60;;;;;;4370284;32;20490;-39
2021/05/26 06:49:03;;;;;;;1.85;0.73;;;30.10;25.40;;;;;;4370557;32;20212;-40
2021/05/26 06:51:30;;;;;;;0.37;0.20;;;30.20;25.70;;;;;;4371701;32;20093;-39
2021/05/26 06:53:57;;;;;;;0.57;0.35;;;30.20;24.90;;;;;;4387953;32;20066;-39
2021/05/26 06:56:23;;;;;;;8.93;0.50;;;30.40;25.10;;;;;;4388002;32;20497;-38
2021/05/26 06:58:50;;;;;;;0.75;0.65;;;30.20;24.20;;;;;;4373823;32;20086;-39
2021/05/26 07:01:16;;;;;;;3.25;0.37;;;30.20;24.60;;;;;;4374193;32;20073;-38
2021/05/26 07:03:43;;;;;;;4.12;0.30;;;30.20;24.20;;;;;;4387881;32;20077;-38
2021/05/26 07:06:10;;;;;;;1.05;0.20;;;30.20;23.80;;;;;;4387753;32;20074;-40
2021/05/26 07:08:36;;;;;;;2.85;0.40;;;30.30;23.90;;;;;;4374147;32;20527;-38
2021/05/26 07:11:03;;;;;;;0.55;0.28;;;30.30;24.20;;;;;;4373504;32;20154;-39
2021/05/26 07:13:29;;;;;;;0.32;0.28;;;30.40;24.70;;;;;;4387717;32;20065;-38
2021/05/26 07:15:56;;;;;;;0.40;0.20;;;30.50;24.80;;;;;;4374045;32;20064;-38
2021/05/26 07:18:22;;;;;;;0.25;0.25;;;30.50;24.60;;;;;;4387743;32;20076;-40
2021/05/26 07:20:51;;;;;;;0.50;0.35;;;30.50;24.70;;;;;;4387963;32;20113;-39
2021/05/26 07:23:18;;;;;;;0.35;0.22;;;30.60;24.70;;;;;;4391011;32;20085;-40
2021/05/26 07:25:45;;;;;;;0.30;0.20;;;30.70;24.70;;;;;;4390854;32;20066;-38
2021/05/26 07:28:12;;;;;;;1.02;0.50;;;30.70;24.50;;;;;;4390870;32;20145;-38
2021/05/26 07:30:39;;;;;;;0.30;0.30;;;30.70;24.80;;;;;;4391371;32;20057;-38
2021/05/26 07:33:06;;;;;;;1.30;0.30;;;30.70;24.70;;;;;;4358190;32;20153;-38
2021/05/26 07:35:32;;;;;;;0.45;0.40;;;30.80;24.80;;;;;;4358123;32;20515;-39
2021/05/26 07:37:59;;;;;;;1.48;0.65;;;30.80;24.70;;;;;;4358071;32;20180;-39
2021/05/26 07:40:25;;;;;;;1.17;0.22;;;30.90;24.50;;;;;;4358206;32;20486;-39
2021/05/26 07:42:52;;;;;;;0.85;0.30;;;30.90;24.90;;;;;;4358024;32;20539;-39
2021/05/26 07:45:18;;;;;;;1.33;0.30;;;31.00;25.10;;;;;;4358493;32;20154;-38
2021/05/26 07:47:45;;;;;;;0.77;0.40;;;31.00;25.10;;;;;;4345418;32;20069;-49
2021/05/26 07:50:12;;;;;;;1.77;0.30;;;31.00;24.80;;;;;;4357938;32;20078;-39
2021/05/26 07:52:39;;;;;;;0.30;0.20;;;31.10;24.90;;;;;;4357833;32;20086;-39
2021/05/26 07:55:06;;;;;;;1.23;0.20;;;31.10;24.80;;;;;;4345598;32;20067;-37
2021/05/26 07:57:32;;;;;;;0.68;0.40;;;31.10;24.90;;;;;;4358103;32;20077;-39
2021/05/26 07:59:59;;;;;;;2.67;0.30;;;31.10;24.60;;;;;;4357872;32;20074;-39
2021/05/26 08:02:26;;;;;;;1.75;0.30;;;31.10;24.70;;;;;;4357541;32;20089;-39
2021/05/26 08:04:53;;;;;;;0.55;0.30;;;31.10;24.30;;;;;;4357727;32;20078;-39
2021/05/26 08:07:19;;;;;;;0.98;0.40;;;31.20;24.30;;;;;;4357433;32;20136;-39
2021/05/26 08:09:46;;;;;;;0.20;0.20;;;31.40;24.60;;;;;;4351201;32;20066;-39
2021/05/26 08:12:13;;;;;;;2.15;0.50;;;31.50;24.50;;;;;;4390154;32;20443;-40
2021/05/26 08:14:40;;;;;;;3.28;0.50;;;31.60;24.10;;;;;;4390423;32;20070;-41
2021/05/26 08:17:06;;;;;;;0.30;0.25;;;31.60;24.00;;;;;;4390212;32;20602;-38
2021/05/26 08:19:33;;;;;;;10.43;0.40;;;31.70;23.90;;;;;;4390643;32;20088;-46
2021/05/26 08:21:59;;;;;;;1.02;0.20;;;31.80;24.00;;;;;;4386411;32;20061;-38
2021/05/26 08:24:26;;;;;;;2.20;0.30;;;31.90;23.60;;;;;;4390242;32;20520;-38
2021/05/26 08:26:52;;;;;;;4.55;0.30;;;31.90;23.60;;;;;;4390253;32;20070;-40
2021/05/26 08:29:19;;;;;;;0.20;0.20;;;31.90;23.60;;;;;;4389761;32;20544;-39
2021/05/26 08:31:46;;;;;;;0.20;0.20;;;31.90;23.50;;;;;;4389372;32;20105;-39
2021/05/26 08:34:12;;;;;;;1.65;0.55;;;32.00;23.50;;;;;;4390026;32;20077;-40
2021/05/26 08:36:39;;;;;;;4.37;0.70;;;32.20;23.60;;;;;;4390223;32;20162;-38
2021/05/26 08:39:06;;;;;;;0.62;0.32;;;32.20;23.10;;;;;;4389545;32;20101;-40
2021/05/26 08:41:32;;;;;;;0.40;0.32;;;32.00;23.00;;;;;;4389582;32;20498;-38
2021/05/26 08:43:59;;;;;;;1.25;0.30;;;31.90;23.10;;;;;;4389955;32;20054;-38
2021/05/26 08:46:28;;;;;;;0.32;0.20;;;31.90;23.00;;;;;;4389867;32;20153;-39
2021/05/26 08:48:57;;;;;;;1.27;0.30;;;32.00;23.10;;;;;;4389915;32;20081;-38
2021/05/26 08:51:24;;;;;;;0.55;0.43;;;32.10;23.30;;;;;;4388104;32;20108;-39
2021/05/26 08:53:50;;;;;;;5.97;3.33;;;32.10;23.00;;;;;;4388071;32;20072;-40
2021/05/26 08:56:17;;;;;;;2.60;1.35;;;32.20;23.00;;;;;;4387825;32;20621;-39
2021/05/26 08:58:43;;;;;;;10.10;2.30;;;32.30;22.70;;;;;;4389356;32;20058;-39
2021/05/26 09:01:10;;;;;;;2.97;1.35;;;32.30;23.30;;;;;;4387645;32;20085;-38
2021/05/26 09:03:36;;;;;;;2.72;0.93;;;32.40;22.60;;;;;;4389200;32;20101;-40
2021/05/26 09:06:10;;;;;;;0.22;0.20;;;32.50;22.70;;;;;;4389245;32;20058;-39
2021/05/26 09:08:51;;;;;;;2.35;0.32;;;32.60;22.70;;;;;;4387944;32;20080;-39
2021/05/26 09:11:30;;;;;;;6.40;0.50;;;32.70;22.50;;;;;;4387803;32;20137;-38
2021/05/26 09:13:57;;;;;;;0.85;0.20;;;32.80;22.10;;;;;;4389512;32;20073;-38
2021/05/26 09:16:27;;;;;;;2.97;0.20;;;32.80;22.20;;;;;;4389576;32;20065;-40
2021/05/26 09:19:02;;;;;;;0.57;0.30;;;32.90;22.30;;;;;;4389674;32;20066;-38
2021/05/26 09:21:58;;;;;;;2.95;0.30;;;32.90;22.60;;;;;;4389190;32;20088;-39
2021/05/26 09:24:25;;;;;;;0.22;0.22;;;32.90;21.70;;;;;;4387813;32;20112;-39
2021/05/26 09:26:59;;;;;;;0.10;0.10;;;32.90;21.90;;;;;;4389289;32;20068;-39
2021/05/26 09:29:27;;;;;;;3.25;0.55;;;32.90;21.80;;;;;;4376318;32;20076;-39
2021/05/26 09:32:25;;;;;;;1.42;1.17;;;32.90;22.20;;;;;;4389468;32;20579;-40
2021/05/26 09:34:53;;;;;;;7.95;2.47;;;32.60;22.00;;;;;;4378655;32;20073;-38
2021/05/26 09:37:27;;;;;;;0.47;0.20;;;32.50;21.70;;;;;;4388856;32;20541;-38
2021/05/26 09:40:06;;;;;;;0.47;0.20;;;32.40;21.90;;;;;;4389098;32;20077;-39
2021/05/26 09:42:36;;;;;;;0.25;0.20;;;32.30;22.10;;;;;;4389253;32;20069;-40
2021/05/26 09:45:10;;;;;;;5.03;0.28;;;32.30;22.00;;;;;;4374808;32;20066;-40
2021/05/26 09:47:42;;;;;;;0.80;0.30;;;32.30;22.40;;;;;;4388939;32;20074;-40
2021/05/26 09:50:28;;;;;;;0.90;0.30;;;32.50;22.70;;;;;;4389026;32;20073;-39
2021/05/26 09:53:16;;;;;;;0.45;0.20;;;32.50;22.60;;;;;;4388933;32;20068;-39
2021/05/26 09:55:46;;;;;;;0.40;0.30;;;32.60;22.30;;;;;;4389060;32;20061;-39
2021/05/26 09:58:17;;;;;;;1.17;0.55;;;32.50;22.40;;;;;;4388585;32;20068;-39
2021/05/26 10:00:45;;;;;;;2.53;0.30;;;32.30;22.50;;;;;;4388403;32;20580;-39
2021/05/26 10:03:13;;;;;;;2.67;0.37;;;32.10;22.60;;;;;;4388602;32;20108;-38
2021/05/26 10:05:39;;;;;;;0.62;0.30;;;32.20;22.80;;;;;;4343336;32;20077;-39
2021/05/26 10:08:12;;;;;;;0.30;0.30;;;32.10;22.50;;;;;;4344009;32;20078;-38
2021/05/26 10:10:40;;;;;;;1.37;0.30;;;32.00;22.60;;;;;;4356080;32;20169;-39
2021/05/26 10:13:10;;;;;;;1.23;0.20;;;32.00;22.50;;;;;;4343532;32;20065;-40
2021/05/26 10:15:37;;;;;;;3.85;0.80;;;32.00;22.60;;;;;;4343868;32;20066;-40
2021/05/26 10:18:03;;;;;;;4.03;0.55;;;32.00;22.50;;;;;;4343403;32;20577;-39
2021/05/26 10:20:35;;;;;;;0.98;0.30;;;32.20;22.80;;;;;;4359193;32;20066;-39
2021/05/26 10:23:02;;;;;;;0.73;0.30;;;32.30;22.50;;;;;;4358759;32;20113;-39
2021/05/26 10:25:29;;;;;;;1.15;0.40;;;32.40;22.30;;;;;;4358241;32;20517;-39
2021/05/26 10:27:59;;;;;;;0.10;0.10;;;32.50;22.30;;;;;;4346353;32;20191;-39
2021/05/26 10:30:29;;;;;;;0.85;0.40;;;32.70;22.20;;;;;;4358247;32;20142;-39
2021/05/26 10:33:04;;;;;;;1.12;0.30;;;32.80;22.10;;;;;;4346447;32;20062;-41
2021/05/26 10:35:32;;;;;;;0.20;0.20;;;32.80;21.90;;;;;;4371643;32;20054;-41
2021/05/26 10:38:08;;;;;;;0.30;0.20;;;32.90;21.80;;;;;;4388849;32;20066;-39
2021/05/26 10:40:49;;;;;;;0.30;0.20;;;32.90;21.80;;;;;;4403224;32;20065;-39
2021/05/26 10:43:16;;;;;;;2.47;0.20;;;33.00;21.90;;;;;;4402900;32;20076;-40
2021/05/26 10:45:50;;;;;;;0.35;0.17;;;33.10;21.80;;;;;;4403485;32;20057;-40
2021/05/26 10:48:41;;;;;;;0.85;0.25;;;33.10;21.70;;;;;;4403456;32;20090;-40
2021/05/26 10:51:08;;;;;;;0.45;0.20;;;33.10;21.80;;;;;;4403108;32;20069;-40
2021/05/26 10:53:44;;;;;;;4.50;0.22;;;33.10;21.60;;;;;;4402892;32;20485;-41
2021/05/26 10:56:43;;;;;;;1.45;0.82;;;33.10;21.70;;;;;;4389183;32;20054;-39
2021/05/26 10:59:13;;;;;;;0.85;0.35;;;33.10;21.50;;;;;;4325561;33;20105;-39
2021/05/26 11:02:03;;;;;;;0.30;0.22;;;33.20;21.70;;;;;;4326161;33;20155;-39
2021/05/26 11:04:30;;;;;;;0.30;0.20;;;33.10;21.60;;;;;;4322311;33;20087;-38
2021/05/26 11:07:25;;;;;;;0.82;0.40;;;32.90;21.60;;;;;;4326008;33;20507;-39
2021/05/26 11:10:06;;;;;;;;;;;33.00;21.90;;;;;;4326570;33;20244;-39
2021/05/26 11:12:59;;;;;;;1.17;0.30;;;33.10;21.70;;;;;;4325910;33;20461;-40
2021/05/26 11:15:44;;;;;;;1.15;0.30;;;33.00;21.70;;;;;;4324709;33;20144;-40
2021/05/26 11:18:22;;;;;;;0.60;0.20;;;32.80;21.50;;;;;;4325732;33;20142;-40
2021/05/26 11:20:48;;;;;;;1.20;0.30;;;32.70;21.80;;;;;;4320524;33;20636;-39
2021/05/26 11:23:15;;;;;;;1.48;0.15;;;32.60;21.70;;;;;;4310848;33;20081;-39
2021/05/26 11:25:57;;;;;;;4.85;0.40;;;32.60;21.80;;;;;;4310958;33;20067;-39
2021/05/26 11:28:31;;;;;;;1.33;0.20;;;32.70;22.00;;;;;;4310816;33;20603;-38
2021/05/26 11:31:04;;;;;;;0.65;0.25;;;32.70;21.90;;;;;;4310781;33;20077;-39
2021/05/26 11:33:31;;;;;;;0.83;0.30;;;32.70;21.80;;;;;;4311299;33;20062;-39
2021/05/26 11:36:09;;;;;;;0.10;0.10;;;32.80;21.80;;;;;;4373916;32;20253;-39
2021/05/26 11:38:35;;;;;;;0.20;0.20;;;32.90;21.90;;;;;;4387761;32;20173;-40
2021/05/26 11:41:15;;;;;;;8.23;4.93;;;32.90;21.80;;;;;;4387863;32;20543;-39
2021/05/26 11:43:42;;;;;;;1.10;0.45;;;32.80;21.70;;;;;;4375249;32;20077;-38
2021/05/26 11:46:10;;;;;;;0.88;0.30;;;32.70;21.60;;;;;;4373801;32;20160;-40
2021/05/26 11:48:37;;;;;;;0.52;0.35;;;32.60;21.80;;;;;;4388201;32;20070;-40
2021/05/26 11:51:04;;;;;;;3.90;0.57;;;32.40;21.80;;;;;;4387801;32;20544;-40
2021/05/26 11:53:30;;;;;;;3.30;0.20;;;32.40;22.20;;;;;;4373474;32;20097;-41
2021/05/26 11:56:03;;;;;;;0.30;0.20;;;32.40;22.10;;;;;;4387382;32;20054;-39
2021/05/26 11:58:35;;;;;;;2.92;0.30;;;32.40;22.10;;;;;;4361700;32;20209;-39
2021/05/26 12:01:04;;;;;;;3.55;0.30;;;32.40;22.60;;;;;;4387363;32;20070;-40
2021/05/26 12:03:31;;;;;;;4.90;0.70;;;32.40;22.80;;;;;;4372988;32;20054;-40
2021/05/26 12:05:58;;;;;;;0.70;0.20;;;32.40;22.90;;;;;;4387104;32;20502;-40
2021/05/26 12:08:38;;;;;;;0.50;0.30;;;32.40;22.70;;;;;;4389540;32;20084;-39
2021/05/26 12:11:16;;;;;;;2.00;0.20;;;32.40;22.80;;;;;;4376625;32;20092;-39
2021/05/26 12:13:45;;;;;;;1.10;0.20;;;32.20;22.70;;;;;;4389875;32;20530;-39
2021/05/26 12:16:18;;;;;;;0.90;0.20;;;32.00;22.70;;;;;;4390142;32;20085;-40
2021/05/26 12:18:55;;;;;;;2.95;0.40;;;32.00;22.90;;;;;;4389993;32;20066;-40
2021/05/26 12:21:30;;;;;;;2.28;0.40;;;31.80;22.80;;;;;;4375868;32;20714;-40
2021/05/26 12:24:06;;;;;;;0.62;0.20;;;31.60;22.90;;;;;;4376415;32;20453;-38
2021/05/26 12:26:38;;;;;;;0.10;0.10;;;31.50;22.80;;;;;;4390254;32;20065;-39
2021/05/26 12:29:09;;;;;;;3.30;0.65;;;31.40;22.80;;;;;;4390061;32;20154;-39
2021/05/26 12:31:39;;;;;;;0.57;0.30;;;31.40;23.10;;;;;;4390380;32;20133;-40
2021/05/26 12:34:17;;;;;;;0.10;0.10;;;31.40;23.00;;;;;;4376154;32;20068;-39
2021/05/26 12:36:51;;;;;;;0.85;0.47;;;31.40;23.00;;;;;;4375568;32;20097;-40
2021/05/26 12:39:17;;;;;;;0.52;0.20;;;31.50;23.00;;;;;;4375263;32;20078;-39
2021/05/26 12:41:53;;;;;;;1.37;0.30;;;31.50;22.80;;;;;;4389829;32;20074;-39
2021/05/26 12:44:22;;;;;;;1.20;0.30;;;31.40;23.00;;;;;;4389584;32;20657;-40
2021/05/26 12:46:59;;;;;;;0.85;0.45;;;31.50;23.00;;;;;;4356478;32;20113;-39
2021/05/26 12:50:01;;;;;;;1.75;0.40;;;31.50;22.70;;;;;;4356738;32;20514;-39
2021/05/26 12:52:38;;;;;;;0.30;0.30;;;31.50;22.80;;;;;;4355435;32;20585;-41
2021/05/26 12:55:06;;;;;;;1.27;0.40;;;31.30;22.80;;;;;;4344330;32;20070;-38
2021/05/26 12:57:33;;;;;;;0.40;0.20;;;31.10;22.90;;;;;;4356773;32;20070;-39
2021/05/26 13:00:05;;;;;;;2.67;0.32;;;31.00;23.10;;;;;;4357077;32;20151;-41